カイロ の空港の天気 - METARとTAF

カイロ国際空港 ( HECA / CAI ) - エジプト [カイロ
飛行場実況気象(Metar)
観測時間05/27 02:00 EET (05/27 00:00 UTC)
風向・風速北 4m/s
視程10km以上
天気現象
なし
気温21℃
湿度64%
気圧1014hPa
METARHECA 270000Z 35008KT CAVOK 21/14 Q1014 NOSIG
過去の天気等 Google飛行場航空写真 Wunderground天気予報

過去48時間のMETAR

飛行場予報(TAF)
発表時間: 5/27 01:00 EET (5/26 23:00 UTC)
予報対象時間: 27日2時 EET ~ 28日8時 EET
風向・風速北 4m/s
視程10km以上
なし
TAF HECA 262300Z 2700/2806 01008KT CAVOK